• Join FlightAware (Why Join?)
  • Login
  • US Flag 
06:13AM EDT


 

Airport Tracker/Info


-or-


 

Live Flight TrackerFlight Track Log ✈ N104HE ✈ 23-Sep-2013 ✈ KLAL - KHUM

Flight Track Log - Related Links

Times and Time Zones

All times are in EDT time to prevent confusion due to time zone crossing. See the N104HE flight status page for this flight to view local times or setup timezone preferences in your user account.

Time Position Orientation Groundspeed Altitude Reporting Facility
EDT Latitude Longitude Course Direction KTS MPH feet Rate Location/Type
06:37AM 27.9833 -82.0167 41° Northeast 99 114 700  Level Tampa TRACON
06:37AM 28.0000 -82.0000 41° Northeast 98 113 800 960 Climbing Tampa TRACON
06:38AM 28.0167 -82.0000 360° North 105 121 1,800 900 Climbing Tampa TRACON
06:39AM 28.0500 -82.0167 336° Northwest 107 123 2,700 900 Climbing Tampa TRACON
06:40AM 28.0667 -82.0333 319° Northwest 106 122 3,600 840 Climbing Tampa TRACON
06:41AM 28.1000 -82.0667 319° Northwest 109 125 4,400 780 Climbing Tampa TRACON
06:42AM 28.1167 -82.0833 319° Northwest 108 124 5,200 780 Climbing Tampa TRACON
06:43AM 28.1500 -82.1000 336° Northwest 110 127 6,000 720 Climbing Tampa TRACON
06:44AM 28.1833 -82.1167 336° Northwest 112 129 6,700 660 Climbing Tampa TRACON
06:45AM 28.2000 -82.1333 319° Northwest 112 129 7,400 600 Climbing Tampa TRACON
06:46AM 28.2333 -82.1500 336° Northwest 113 130 8,000 300 Climbing Tampa TRACON
06:47AM 28.2667 -82.1667 336° Northwest 135 155 8,000  Level Tampa TRACON
06:48AM 28.3000 -82.1833 336° Northwest 134 154 8,000  Level Tampa TRACON
06:49AM 28.3167 -82.2167 300° West 119 137 8,000  Level Tampa TRACON
06:50AM 28.3500 -82.2333 336° Northwest 118 136 8,000  Level Tampa TRACON
06:51AM 28.3833 -82.2500 336° Northwest 116 133 8,000  Level Tampa TRACON
06:52AM 28.4000 -82.2667 319° Northwest 118 136 8,000  Level Tampa TRACON
06:53AM 28.4333 -82.2833 336° Northwest 117 135 8,000  Level Tampa TRACON
06:54AM 28.4667 -82.3000 336° Northwest 118 136 8,000  Level Tampa TRACON
06:55AM 28.4833 -82.3167 319° Northwest 120 138 8,000  Level Tampa TRACON
06:56AM 28.5167 -82.3500 319° Northwest 123 142 8,000  Level Tampa TRACON
06:58AM 28.5808 -82.3889 332° Northwest 118 136 8,000  Level Jacksonville Center
06:59AM 28.6103 -82.4078 331° Northwest 121 139 8,000  Level Jacksonville Center
07:00AM 28.6375 -82.4242 332° Northwest 120 138 8,000  Level Jacksonville Center
07:01AM 28.6689 -82.4453 329° Northwest 119 137 8,000  Level Jacksonville Center
07:02AM 28.6958 -82.4642 328° Northwest 120 138 8,000  Level Jacksonville Center
07:03AM 28.7231 -82.4853 326° Northwest 117 135 8,000  Level Jacksonville Center
07:04AM 28.7503 -82.5089 323° Northwest 112 129 8,000  Level Jacksonville Center
07:05AM 28.7692 -82.5325 312° West 112 129 8,000  Level Jacksonville Center
07:06AM 28.7986 -82.5444 340° North 131 151 8,000  Level Jacksonville Center
07:07AM 28.8339 -82.5369 11° North 130 150 8,000  Level Jacksonville Center
07:08AM 28.8694 -82.5275 13° North 129 148 8,000  Level Jacksonville Center
07:09AM 28.9069 -82.5225 North 128 147 8,000  Level Jacksonville Center
07:10AM 28.9425 -82.5178 North 126 145 8,000  Level Jacksonville Center
07:11AM 28.9800 -82.5128 North 125 144 8,000  Level Jacksonville Center
07:12AM 29.0114 -82.5031 15° North 126 145 8,000  Level Jacksonville Center
07:13AM 29.0467 -82.4983 North 127 146 8,000  Level Jacksonville Center
07:14AM 29.0781 -82.4933 North 125 144 8,000  Level Jacksonville Center
07:15AM 29.1156 -82.4861 10° North 126 145 8,000  Level Jacksonville Center
07:16AM 29.1553 -82.4836 North 129 148 8,000  Level Jacksonville Center
07:17AM 29.1825 -82.4906 347° North 125 144 8,000  Level Jacksonville Center
07:18AM 29.1992 -82.5286 297° West 112 129 8,000  Level Jacksonville Center
07:19AM 29.2056 -82.5381 308° West 115 132 8,000  Level Jacksonville Center
07:19AM 29.2117 -82.5594 288° West 116 133 8,000  Level Jacksonville Center
07:20AM 29.2203 -82.5739 304° West 115 132 8,000  Level Jacksonville Center
07:20AM 29.2286 -82.5903 300° West 116 133 8,000  Level Jacksonville Center
07:21AM 29.2328 -82.6047 288° West 115 132 8,000  Level Jacksonville Center
07:21AM 29.2411 -82.6236 297° West 115 132 8,000  Level Jacksonville Center
07:22AM 29.2494 -82.6378 304° West 115 132 8,000  Level Jacksonville Center
07:22AM 29.2558 -82.6544 294° West 112 129 8,000  Level Jacksonville Center
07:23AM 29.2642 -82.6689 303° West 115 132 8,000  Level Jacksonville Center
07:23AM 29.2725 -82.6878 297° West 114 131 8,000  Level Jacksonville Center
07:24AM 29.2767 -82.6997 292° West 115 132 8,000  Level Jacksonville Center
07:25AM 29.2956 -82.7258 310° West 115 132 8,000  Level Jacksonville Center
07:26AM 29.3167 -82.7544 310° West 120 138 8,100  Climbing Jacksonville Center
07:27AM 29.3394 -82.7831 312° West 120 138 8,100  Level Jacksonville Center
07:28AM 29.3606 -82.8117 310° West 120 138 8,100  Level Jacksonville Center
07:29AM 29.3814 -82.8378 312° West 114 131 8,100  Level Jacksonville Center
07:30AM 29.3939 -82.8711 293° West 114 131 8,100  Level Jacksonville Center
07:31AM 29.4022 -82.9044 286° West 114 131 8,100  Level Jacksonville Center
07:32AM 29.4125 -82.9378 289° West 109 125 8,100  Level Jacksonville Center
07:33AM 29.4106 -82.9711 266° West 109 125 8,200 240 Climbing Jacksonville Center
07:34AM 29.4106 -83.0022 270° West 103 119 8,600 300 Climbing Jacksonville Center
07:35AM 29.4064 -83.0333 261° West 103 119 8,900 360 Climbing Jacksonville Center
07:36AM 29.4042 -83.0642 265° West 103 119 9,400 480 Climbing Jacksonville Center
07:37AM 29.4042 -83.0928 270° West 103 119 9,900 300 Climbing Jacksonville Center
07:38AM 29.4019 -83.1261 266° West 103 119 10,000  Climbing Jacksonville Center
07:39AM 29.3997 -83.1594 266° West 103 119 10,000  Level Jacksonville Center
07:40AM 29.3978 -83.1953 266° West 103 119 10,000  Level Jacksonville Center
07:41AM 29.3956 -83.2311 266° West 103 119 10,000  Level Jacksonville Center
07:42AM 29.3911 -83.2644 261° West 103 119 10,000  Level Jacksonville Center
07:43AM 29.3892 -83.2978 266° West 103 119 10,000  Level Jacksonville Center
07:44AM 29.3869 -83.3336 266° West 103 119 10,000  Level Jacksonville Center
07:45AM 29.3847 -83.3669 266° West 103 119 10,000  Level Jacksonville Center
07:46AM 29.3825 -83.4025 266° West 103 119 10,000  Level Jacksonville Center
07:47AM 29.3781 -83.4358 261° West 103 119 10,000  Level Jacksonville Center
07:48AM 29.3758 -83.4692 266° West 103 119 10,100  Climbing Jacksonville Center
07:49AM 29.3736 -83.5050 266° West 103 119 10,000 -60 Descending Jacksonville Center
07:50AM 29.3714 -83.5383 266° West 103 119 10,000  Level Jacksonville Center
07:51AM 29.3711 -83.5717 269° West 103 119 10,000  Level Jacksonville Center
07:52AM 29.3689 -83.6050 266° West 103 119 10,100  Climbing Jacksonville Center
07:53AM 29.3667 -83.6383 266° West 103 119 10,000 -60 Descending Jacksonville Center
07:54AM 29.3644 -83.6717 266° West 103 119 10,000  Level Jacksonville Center
07:55AM 29.3619 -83.7003 264° West 103 119 10,000  Level Jacksonville Center
07:56AM 29.3639 -83.7336 274° West 103 119 10,000  Level Jacksonville Center
07:57AM 29.3636 -83.7647 269° West 103 119 10,000  Level Jacksonville Center
07:58AM 29.3656 -83.7956 274° West 103 119 10,000  Level Jacksonville Center
07:59AM 29.3717 -83.8244 284° West 103 119 10,000  Level Jacksonville Center
08:00AM 29.3944 -83.8531 312° West 103 119 10,000  Level Jacksonville Center
08:01AM 29.4150 -83.8819 309° West 113 130 10,000  Level Jacksonville Center
08:02AM 29.4317 -83.9108 304° West 119 137 10,000  Level Jacksonville Center
08:03AM 29.4542 -83.9397 312° West 119 137 10,000  Level Jacksonville Center
08:04AM 29.4728 -83.9636 312° West 114 131 10,000  Level Jacksonville Center
08:05AM 29.4914 -83.9925 307° West 109 125 10,100  Climbing Jacksonville Center
08:06AM 29.5058 -84.0236 298° West 109 125 10,000 -60 Descending Jacksonville Center
08:07AM 29.5200 -84.0550 297° West 109 125 10,000  Level Jacksonville Center
08:08AM 29.5322 -84.0861 294° West 109 125 10,000  Level Jacksonville Center
08:09AM 29.5531 -84.1150 310° West 109 125 10,000  Level Jacksonville Center
08:10AM 29.5736 -84.1414 312° West 114 131 10,000  Level Jacksonville Center
08:11AM 29.5961 -84.1703 312° West 114 131 10,000  Level Jacksonville Center
08:12AM 29.6169 -84.1944 315° West 114 131 10,100  Climbing Jacksonville Center
08:13AM 29.6375 -84.2211 312° West 114 131 10,000 -60 Descending Jacksonville Center
08:14AM 29.6622 -84.2478 317° Northwest 114 131 10,000  Level Jacksonville Center
08:15AM 29.6808 -84.2767 307° West 114 131 10,000  Level Jacksonville Center
08:16AM 29.7014 -84.3008 314° West 114 131 10,100  Climbing Jacksonville Center
08:17AM 29.7239 -84.3250 317° Northwest 114 131 10,000 -60 Descending Jacksonville Center
08:18AM 29.7444 -84.3517 312° West 114 131 10,000  Level Jacksonville Center
08:19AM 29.7650 -84.3831 307° West 114 131 10,000  Level Jacksonville Center
08:20AM 29.7878 -84.4075 317° Northwest 109 125 10,000  Level Jacksonville Center
08:21AM 29.8042 -84.4364 303° West 109 125 10,000  Level Jacksonville Center
08:22AM 29.8267 -84.4631 314° West 109 125 10,000 -60 Level Jacksonville Center
08:24AM 29.8473 -84.5299 290° West  Level FlightAware Approximate
08:31AM 29.9219 -84.7722 290° West  Level FlightAware Approximate
08:32AM 29.9325 -84.8068 289° West  Level FlightAware Approximate
08:33AM 29.9431 -84.8415 289° West  Level FlightAware Approximate
08:34AM 29.9537 -84.8761 289° West  Level FlightAware Approximate
08:35AM 29.9643 -84.9108 289° West  Level FlightAware Approximate
08:36AM 29.9749 -84.9454 289° West  Level FlightAware Approximate
08:37AM 29.9855 -84.9801 289° West  Level FlightAware Approximate
08:38AM 29.9960 -85.0148 289° West  Level FlightAware Approximate
08:39AM 30.0066 -85.0495 289° West  Level FlightAware Approximate
08:40AM 30.0171 -85.0842 289° West  Level FlightAware Approximate
08:41AM 30.0277 -85.1189 289° West  Level FlightAware Approximate
08:42AM 30.0382 -85.1536 289° West  Level FlightAware Approximate
08:43AM 30.0487 -85.1883 289° West  Level FlightAware Approximate
08:44AM 30.0592 -85.2230 289° West  Level FlightAware Approximate
08:45AM 30.0697 -85.2578 289° West  Level FlightAware Approximate
08:46AM 30.0802 -85.2925 289° West  Level FlightAware Approximate
08:47AM 30.0907 -85.3273 289° West  Level FlightAware Approximate
08:48AM 30.1011 -85.3620 289° West  Level FlightAware Approximate
08:49AM 30.1116 -85.3968 289° West  Level FlightAware Approximate
08:50AM 30.1220 -85.4315 289° West  Level FlightAware Approximate
08:51AM 30.1325 -85.4663 289° West  Level FlightAware Approximate
08:52AM 30.1429 -85.5011 289° West  Level FlightAware Approximate
08:53AM 30.1533 -85.5359 289° West  Level FlightAware Approximate
08:54AM 30.1637 -85.5707 289° West  Level FlightAware Approximate
08:55AM 30.1742 -85.6055 289° West  Level FlightAware Approximate
08:56AM 30.1846 -85.6403 289° West  Level FlightAware Approximate
08:57AM 30.1950 -85.6752 289° West  Level FlightAware Approximate
08:58AM 30.2053 -85.7100 289° West  Level FlightAware Approximate
08:59AM 30.2157 -85.7448 289° West  Level FlightAware Approximate
09:00AM 30.2261 -85.7797 289° West  Level FlightAware Approximate
09:01AM 30.2364 -85.8145 289° West  Level FlightAware Approximate
09:02AM 30.2467 -85.8494 289° West  Level FlightAware Approximate
09:03AM 30.2571 -85.8843 289° West  Level FlightAware Approximate
09:04AM 30.2667 -85.9224 270° West  Level FlightAware Approximate
09:05AM 30.2691 -85.9591 276° West  Level FlightAware Approximate
09:06AM 30.2726 -85.9957 276° West  Level FlightAware Approximate
09:07AM 30.2760 -86.0324 276° West  Level FlightAware Approximate
09:08AM 30.2794 -86.0691 276° West  Level FlightAware Approximate
09:09AM 30.2828 -86.1057 276° West  Level FlightAware Approximate
09:10AM 30.2862 -86.1424 276° West  Level FlightAware Approximate
09:11AM 30.2896 -86.1790 276° West  Level FlightAware Approximate
09:12AM 30.2930 -86.2157 276° West  Level FlightAware Approximate
09:13AM 30.2964 -86.2524 276° West  Level FlightAware Approximate
09:14AM 30.2998 -86.2890 276° West  Level FlightAware Approximate
09:15AM 30.3032 -86.3257 276° West  Level FlightAware Approximate
09:16AM 30.3065 -86.3624 276° West  Level FlightAware Approximate
09:17AM 30.3098 -86.3991 276° West  Level FlightAware Approximate
09:18AM 30.3132 -86.4358 276° West  Level FlightAware Approximate
09:19AM 30.3165 -86.4724 276° West  Level FlightAware Approximate
09:20AM 30.3198 -86.5091 276° West  Level FlightAware Approximate
09:21AM 30.3231 -86.5458 276° West  Level FlightAware Approximate
09:22AM 30.3264 -86.5825 276° West  Level FlightAware Approximate
09:23AM 30.3296 -86.6192 276° West  Level FlightAware Approximate
09:24AM 30.3329 -86.6559 276° West  Level FlightAware Approximate
09:25AM 30.3362 -86.6926 276° West  Level FlightAware Approximate
09:26AM 30.3394 -86.7293 276° West  Level FlightAware Approximate
09:26AM 30.3467 -86.6594 270° West 114 131 9,900  Level Jacksonville Center
09:27AM 30.3426 -86.7660 276° West  Level FlightAware Approximate
09:28AM 30.3459 -86.8027 276° West  Level FlightAware Approximate
09:28AM 30.3494 -86.7053 274° West 114 131 9,900  Level Jacksonville Center
09:29AM 30.3491 -86.8394 276° West  Level FlightAware Approximate
09:29AM 30.3503 -86.7439 271° West 114 131 9,900  Level Jacksonville Center
09:30AM 30.3500 -86.8763 270° West  Level FlightAware Approximate
09:30AM 30.3556 -86.7778 280° West 113 130 9,900  Level Jacksonville Center
09:31AM 30.3501 -86.9131 270° West  Level FlightAware Approximate
09:31AM 30.3564 -86.8161 271° West 113 130 9,900  Level Jacksonville Center
09:32AM 30.3594 -86.8572 275° West 113 130 9,900  Level Jacksonville Center
09:33AM 30.3581 -86.8956 268° West 113 130 9,900  Level Jacksonville Center
09:34AM 30.3594 -86.9222 273° West 115 132 9,900  Level Jacksonville Center
09:35AM 30.3603 -86.9631 271° West 113 130 9,900  Level Jacksonville Center
09:36AM 30.3569 -87.0017 264° West 115 132 9,900  Level Jacksonville Center
09:37AM 30.3578 -87.0378 272° West 115 132 9,900  Level Jacksonville Center
09:38AM 30.3586 -87.0761 271° West 115 132 9,900  Level Jacksonville Center
09:39AM 30.3575 -87.1122 268° West 116 133 9,900  Level Jacksonville Center
09:40AM 30.3561 -87.1508 268° West 116 133 9,900  Level Jacksonville Center
09:41AM 30.3528 -87.1892 264° West 117 135 9,900  Level Jacksonville Center
09:42AM 30.3556 -87.2278 275° West 117 135 9,900  Level Jacksonville Center
09:43AM 30.3542 -87.2733 268° West 116 133 9,900  Level Jacksonville Center
09:44AM 30.3528 -87.3119 268° West 116 133 9,900  Level Jacksonville Center
09:45AM 30.3536 -87.3456 272° West 116 133 9,900  Level Jacksonville Center
09:46AM 30.3547 -87.3769 272° West 116 133 9,900  Level Jacksonville Center
09:47AM 30.3511 -87.4175 264° West 116 133 9,900  Level Jacksonville Center
09:48AM 30.3519 -87.4539 272° West 117 135 9,900  Level Jacksonville Center
09:49AM 30.3506 -87.4947 268° West 119 137 9,900  Level Jacksonville Center
09:50AM 30.3489 -87.5356 267° West 119 137 9,900  Level Jacksonville Center
09:51AM 30.3497 -87.5692 272° West 119 137 9,900  Level Jacksonville Center
09:53AM 30.3514 -87.6417 272° West 118 136 9,900  Level Houston Center
09:54AM 30.3500 -87.6867 268° West 116 133 9,900  Level Houston Center
09:55AM 30.3492 -87.7253 269° West 118 136 9,900  Level Houston Center
09:56AM 30.3475 -87.7653 267° West 122 140 9,900  Level Houston Center
09:57AM 30.3469 -87.8028 269° West 118 136 9,900  Level Houston Center
09:58AM 30.3461 -87.8408 269° West 117 135 10,000  Climbing Houston Center
09:59AM 30.3456 -87.8792 269° West 118 136 9,900 -60 Descending Houston Center
10:00AM 30.3450 -87.9247 269° West 116 133 9,900  Level Houston Center
10:01AM 30.3447 -87.9639 270° West 119 137 9,900  Level Houston Center
10:02AM 30.3425 -88.0028 266° West 121 139 10,000  Climbing Houston Center
10:03AM 30.3422 -88.0408 270° West 119 137 10,000  Level Houston Center
10:04AM 30.3414 -88.0778 269° West 117 135 10,000  Level Houston Center
10:05AM 30.3400 -88.1169 268° West 120 138 10,000  Level Houston Center
10:07AM 30.3381 -88.1625 267° West 119 137 10,000  Level Houston Center
10:08AM 30.3378 -88.1997 270° West 118 136 10,000  Level Houston Center
10:09AM 30.3367 -88.2386 268° West 120 138 10,000  Level Houston Center
10:10AM 30.3356 -88.2764 268° West 118 136 10,000  Level Houston Center
10:11AM 30.3353 -88.3150 270° West 119 137 10,000  Level Houston Center
10:12AM 30.3336 -88.3528 267° West 119 137 10,000  Level Houston Center
10:13AM 30.3331 -88.3989 269° West 119 137 10,000  Level Houston Center
10:14AM 30.3325 -88.4375 269° West 120 138 10,000  Level Houston Center
10:15AM 30.3306 -88.4758 267° West 120 138 10,000  Level Houston Center
10:16AM 30.3297 -88.5139 269° West 119 137 10,100  Climbing Houston Center
10:17AM 30.3289 -88.5528 269° West 121 139 10,000 -60 Descending Houston Center
10:18AM 30.3283 -88.5911 269° West 121 139 10,000  Level Houston Center
10:19AM 30.3267 -88.6375 268° West 121 139 10,000  Level Houston Center
10:20AM 30.3256 -88.6778 268° West 123 142 10,000  Level Houston Center
10:21AM 30.3250 -88.7169 269° West 123 142 10,000  Level Houston Center
10:22AM 30.3236 -88.7558 268° West 122 140 10,000  Level Houston Center
10:23AM 30.3231 -88.7958 269° West 123 142 10,000  Level Houston Center
10:24AM 30.3136 -88.8333 254° West 123 142 10,000  Level Houston Center
10:25AM 30.2950 -88.8747 242° Southwest 121 139 10,000  Level Houston Center
10:26AM 30.2822 -88.9122 248° West 124 143 10,000  Level Houston Center
10:27AM 30.2672 -88.9481 244° Southwest 123 142 10,000  Level Houston Center
10:28AM 30.2533 -88.9850 246° West 127 146 10,000  Level Houston Center
10:29AM 30.2392 -89.0225 246° West 127 146 10,000  Level Houston Center
10:30AM 30.2203 -89.0681 244° Southwest 129 148 10,000  Level Houston Center
10:31AM 30.2056 -89.1067 246° West 130 150 10,000  Level Houston Center
10:32AM 30.1903 -89.1442 245° Southwest 130 150 10,000  Level Houston Center
10:33AM 30.1756 -89.1828 246° West 131 151 10,000  Level Houston Center
10:34AM 30.1611 -89.2211 246° West 130 150 10,000  Level Houston Center
10:36AM 30.1458 -89.2581 244° Southwest 129 148 10,000 -60 Level Houston Center
10:37AM 30.1278 -89.3042 246° West 130 150 9,900  Descending Houston Center
10:37AM 30.1164 -89.3347 247° West 131 151 10,000  Climbing Houston Center
10:38AM 30.1128 -89.3431 243° Southwest 131 151 9,900 -120 Descending Houston Center
10:39AM 30.0975 -89.3806 245° Southwest 130 150 9,900  Level Houston Center
10:40AM 30.0831 -89.4192 247° West 130 150 9,900  Level Houston Center
10:40AM 30.0819 -89.4253 258° West 131 151 9,900  Level Houston Center
10:41AM 30.0678 -89.4569 243° Southwest 130 150 9,900  Level Houston Center
10:41AM 30.0553 -89.4917 247° West 130 150 9,900  Level Houston Center
10:42AM 30.0522 -89.4953 226° Southwest 131 151 9,900  Level Houston Center
10:43AM 30.0358 -89.5358 245° Southwest 129 148 9,900  Level Houston Center
10:43AM 30.0364 -89.5325 79° East 130 150 9,900  Level Houston Center
10:44AM 30.0172 -89.5778 244° Southwest 130 150 9,900  Level Houston Center
10:45AM 30.0072 -89.6092 250° West 130 150 9,900  Level Houston Center
10:45AM 30.0019 -89.6156 226° Southwest 130 150 9,900 -300 Level Houston Center
10:46AM 29.9897 -89.6483 247° West 130 150 9,600 -300 Descending Houston Center
10:46AM 29.9869 -89.6539 240° Southwest 130 150 9,600 -300 Level Houston Center
10:47AM 29.9744 -89.6875 247° West 135 155 9,300 -420 Descending Houston Center
10:47AM 29.9700 -89.6933 229° Southwest 134 154 9,200 -420 Descending Houston Center
10:48AM 29.9569 -89.7267 246° West 133 153 8,900 -420 Descending Houston Center
10:48AM 29.9539 -89.7317 235° Southwest 133 153 8,800 -480 Descending Houston Center
10:49AM 29.9433 -89.7608 247° West 135 155 8,500 -420 Descending Houston Center
10:49AM 29.9381 -89.7703 237° Southwest 133 153 8,400 -600 Descending Houston Center
10:50AM 29.9242 -89.8072 247° West 136 157 7,900 -540 Descending Houston Center
10:50AM 29.9219 -89.8092 217° Southwest 134 154 7,900 -480 Level Houston Center
10:51AM 29.9086 -89.8439 246° West 135 155 7,500 -600 Descending Houston Center
10:51AM 29.9025 -89.8561 240° Southwest 134 154 7,300 -540 Descending Houston Center
10:52AM 29.8931 -89.8806 246° West 130 150 7,000 -420 Descending Houston Center
10:52AM 29.8869 -89.8942 243° Southwest 132 152 6,900 -420 Descending Houston Center
10:53AM 29.8778 -89.9172 245° Southwest 128 147 6,600 -540 Descending Houston Center
10:53AM 29.8722 -89.9311 245° Southwest 129 148 6,400 -540 Descending Houston Center
10:54AM 29.8622 -89.9539 243° Southwest 127 146 6,100 -540 Descending Houston Center
10:54AM 29.8572 -89.9683 248° West 129 148 5,900 -480 Descending Houston Center
10:55AM 29.8447 -89.9978 244° Southwest 127 146 5,600 -420 Descending Houston Center
10:55AM 29.8422 -90.0047 247° West 127 146 5,500 -540 Descending Houston Center
10:56AM 29.8292 -90.0344 243° Southwest 127 146 5,100 -600 Descending Houston Center
10:56AM 29.8275 -90.0411 254° West 127 146 4,900 -600 Descending Houston Center
10:57AM 29.8156 -90.0661 241° Southwest 121 139 4,600 -600 Descending Houston Center
10:57AM 29.8097 -90.0833 249° West 124 143 4,300 -540 Descending Houston Center
10:58AM 29.8019 -90.1003 242° Southwest 117 135 4,100 -300 Descending Houston Center
10:58AM 29.7964 -90.1158 248° West 119 137 4,000 -120 Descending Houston Center
10:59AM 29.7864 -90.1369 241° Southwest 119 137 4,000  Level Houston Center
10:59AM 29.7814 -90.1500 246° West 119 137 4,000  Level Houston Center
11:00AM 29.7728 -90.1686 242° Southwest 115 132 4,000  Level Houston Center
11:00AM 29.7678 -90.1833 249° West 117 135 4,000  Level Houston Center
11:01AM 29.7592 -90.2028 243° Southwest 116 133 4,000  Level Houston Center
11:01AM 29.7539 -90.2169 247° West 116 133 4,000  Level Houston Center
11:02AM 29.7436 -90.2392 242° Southwest 117 135 4,000  Level Houston Center
11:02AM 29.7400 -90.2508 250° West 116 133 4,000  Level Houston Center
11:03AM 29.7300 -90.2733 243° Southwest 118 136 4,000  Level Houston Center
11:03AM 29.7253 -90.2844 244° Southwest 117 135 4,000  Level Houston Center
11:04AM 29.7164 -90.3050 244° Southwest 116 133 4,000  Level Houston Center
11:04AM 29.7092 -90.3242 247° West 116 133 4,000  Level Houston Center
11:05AM 29.7008 -90.3392 237° Southwest 114 131 4,000  Level Houston Center
11:05AM 29.6958 -90.3569 252° West 114 131 4,000  Level Houston Center
11:06AM 29.6869 -90.3708 234° Southwest 114 131 4,000  Level Houston Center
11:06AM 29.6817 -90.3903 253° West 115 132 4,000  Level Houston Center
11:07AM 29.6733 -90.4047 236° Southwest 117 135 4,000  Level Houston Center
11:08AM 29.6678 -90.4231 251° West 115 132 4,000  Level Houston Center
11:08AM 29.6617 -90.4364 242° Southwest 114 131 4,000  Level Houston Center
11:09AM 29.6536 -90.4561 245° Southwest 115 132 4,000  Level Houston Center
11:09AM 29.6461 -90.4681 234° Southwest 117 135 4,000  Level Houston Center
11:10AM 29.6394 -90.4900 251° West 116 133 4,000  Level Houston Center
11:10AM 29.6281 -90.5022 223° Southwest 113 130 4,000  Level Houston Center
11:11AM 29.6144 -90.5169 223° Southwest 110 127 4,000  Level Houston Center
11:11AM 29.6014 -90.5153 174° South 106 122 4,000 -120 Level Houston Center
11:12AM 29.5831 -90.5267 208° Southwest 110 127 3,900 -240 Descending Houston Center
11:12AM 29.5747 -90.5306 202° Southwest 108 124 3,800 -540 Descending Houston Center
11:13AM 29.5553 -90.5403 204° Southwest 110 127 3,400 -540 Descending Houston Center
11:13AM 29.5478 -90.5433 200° South 108 124 3,300 -420 Descending Houston Center
11:14AM 29.5283 -90.5528 203° Southwest 108 124 3,000 -300 Descending Houston Center
11:14AM 29.5189 -90.5542 187° South 109 125 3,000  Level Houston Center
11:15AM 29.4992 -90.5639 203° Southwest 108 124 3,000 -120 Level Houston Center
11:15AM 29.4858 -90.5672 192° South 108 124 2,900 -600 Descending Houston Center
11:16AM 29.4881 -90.6017 274° West 126 145 2,400 -660 Descending Houston Center
11:16AM 29.4869 -90.6053 251° West 132 152 2,300 -600 Descending Houston Center
11:17AM 29.4964 -90.6433 286° West 121 139 1,700 -600 Descending Houston Center